Time;durP1;ratioP1;P1;durP2;ratioP2;P2;SDS_P1;SDS_P2;PMS_P1;PMS_P2;Temp;Humidity;BMP_temperature;BMP_pressure;BME280_temperature;BME280_humidity;BME280_pressure;Samples;Min_cycle;Max_cycle;Signal;HPM_P1;HPM_P2
2021/07/21 00:00:58;;;;;;;6.43;5.38;;;16.30;99.90;;;;;;2112083;28;20506;-68
2021/07/21 00:01:59;;;;;;;7.65;5.28;;;16.30;99.90;;;;;;2105629;28;20039;-68
2021/07/21 00:02:59;;;;;;;7.10;5.20;;;16.20;99.90;;;;;;2105272;28;20439;-68
2021/07/21 00:04:00;;;;;;;7.47;5.63;;;16.20;99.90;;;;;;2105443;28;20112;-68
2021/07/21 00:05:01;;;;;;;5.47;4.97;;;16.20;99.90;;;;;;2113231;28;20027;-68
2021/07/21 00:06:03;;;;;;;7.68;5.57;;;16.20;99.90;;;;;;2110498;28;20031;-68
2021/07/21 00:07:05;;;;;;;8.98;5.30;;;16.20;99.90;;;;;;2105798;28;20024;-68
2021/07/21 00:08:06;;;;;;;7.68;5.95;;;16.20;99.90;;;;;;2112165;28;20023;-68
2021/07/21 00:09:07;;;;;;;7.93;6.25;;;16.20;99.90;;;;;;2113587;28;20084;-68
2021/07/21 00:10:09;;;;;;;7.72;6.15;;;16.20;99.90;;;;;;2113495;28;20032;-68
2021/07/21 00:13:48;;;;;;;5.63;5.03;;;16.10;99.90;;;;;;2097332;28;20028;-68
2021/07/21 00:14:49;;;;;;;8.48;6.03;;;16.00;99.90;;;;;;2105669;28;20024;-68
2021/07/21 00:16:04;;;;;;;6.93;6.15;;;16.00;99.90;;;;;;2105766;28;20383;-68
2021/07/21 00:17:07;;;;;;;6.63;5.93;;;16.00;99.90;;;;;;2105804;28;20028;-68
2021/07/21 00:20:56;;;;;;;5.65;5.15;;;15.90;99.90;;;;;;2105557;28;20103;-68
2021/07/21 00:21:56;;;;;;;6.47;5.25;;;15.90;99.90;;;;;;2105586;28;20017;-68
2021/07/21 00:22:58;;;;;;;8.40;5.65;;;15.90;99.90;;;;;;2098202;28;20059;-68
2021/07/21 00:23:58;;;;;;;6.93;5.20;;;16.00;99.90;;;;;;2107507;28;20032;-68
2021/07/21 00:24:59;;;;;;;7.13;5.97;;;15.90;99.90;;;;;;2105788;28;20020;-68
2021/07/21 00:25:59;;;;;;;6.25;5.65;;;15.90;99.90;;;;;;2105857;28;20074;-68
2021/07/21 00:27:01;;;;;;;6.05;5.45;;;15.90;99.90;;;;;;2104674;28;20025;-68
2021/07/21 00:28:01;;;;;;;7.18;6.07;;;15.90;99.90;;;;;;2104540;28;20060;-68
2021/07/21 00:29:02;;;;;;;8.38;6.15;;;15.90;99.90;;;;;;2105610;28;20041;-68
2021/07/21 00:30:16;;;;;;;7.25;5.85;;;15.90;99.90;;;;;;2105758;28;20023;-68
2021/07/21 00:31:16;;;;;;;7.50;5.85;;;15.90;99.90;;;;;;2105499;28;20020;-68
2021/07/21 00:32:17;;;;;;;6.65;5.68;;;15.80;99.90;;;;;;2105446;28;20388;-68
2021/07/21 00:33:18;;;;;;;6.30;5.70;;;15.80;99.90;;;;;;2105003;28;20067;-68
2021/07/21 00:34:19;;;;;;;6.68;5.97;;;15.80;99.90;;;;;;2105989;28;20036;-68
2021/07/21 00:35:19;;;;;;;7.45;5.68;;;15.80;99.90;;;;;;2105568;28;20040;-71
2021/07/21 00:36:20;;;;;;;7.43;5.97;;;15.80;99.90;;;;;;2105989;28;20024;-68
2021/07/21 00:37:21;;;;;;;7.18;5.88;;;15.80;99.90;;;;;;2105660;28;20028;-68
2021/07/21 00:38:21;;;;;;;6.80;5.60;;;15.80;99.90;;;;;;2107382;28;20031;-68
2021/07/21 00:39:22;;;;;;;5.82;5.22;;;15.80;99.90;;;;;;2114190;28;20051;-68
2021/07/21 00:40:23;;;;;;;9.18;5.70;;;15.80;99.90;;;;;;2113940;28;20015;-68
2021/07/21 00:41:23;;;;;;;6.35;5.75;;;15.80;99.90;;;;;;2110774;28;20059;-68
2021/07/21 00:42:24;;;;;;;6.28;5.68;;;15.80;99.90;;;;;;2097288;28;20024;-68
2021/07/21 00:43:27;;;;;;;7.68;6.00;;;15.80;99.90;;;;;;2107773;28;20034;-68
2021/07/21 00:44:28;;;;;;;6.68;5.40;;;15.70;99.90;;;;;;2114234;28;20027;-68
2021/07/21 00:45:28;;;;;;;7.38;5.85;;;15.70;99.90;;;;;;2113952;28;20099;-68
2021/07/21 00:46:29;;;;;;;6.43;5.75;;;15.70;99.90;;;;;;2114122;28;20019;-68
2021/07/21 00:47:30;;;;;;;6.57;4.90;;;15.70;99.90;;;;;;2112209;28;20068;-68
2021/07/21 00:48:30;;;;;;;6.15;5.55;;;15.70;99.90;;;;;;2105114;28;20493;-68
2021/07/21 00:49:31;;;;;;;6.05;5.45;;;15.70;99.90;;;;;;2105909;28;20027;-68
2021/07/21 00:50:32;;;;;;;7.38;5.78;;;15.70;99.90;;;;;;2105295;28;20043;-68
2021/07/21 00:51:33;;;;;;;6.47;5.75;;;15.70;99.90;;;;;;2108601;28;20023;-68
2021/07/21 00:52:41;;;;;;;7.72;6.47;;;15.70;99.90;;;;;;2111264;28;20016;-68
2021/07/21 00:53:43;;;;;;;7.53;5.32;;;15.70;99.90;;;;;;2105711;28;21136;-68
2021/07/21 00:54:47;;;;;;;9.63;5.80;;;15.60;99.90;;;;;;2108159;28;20081;-68
2021/07/21 00:55:48;;;;;;;6.88;5.22;;;15.60;99.90;;;;;;2112293;28;20399;-68
2021/07/21 00:56:51;;;;;;;10.68;6.30;;;15.60;99.90;;;;;;2105445;28;20028;-68
2021/07/21 00:57:52;;;;;;;5.97;5.15;;;15.60;99.90;;;;;;2106974;28;20032;-68
2021/07/21 00:58:52;;;;;;;6.50;5.20;;;15.60;99.90;;;;;;2114066;28;20483;-68
2021/07/21 00:59:56;;;;;;;6.35;5.28;;;15.60;99.90;;;;;;2114003;28;20456;-68
2021/07/21 01:00:57;;;;;;;6.78;6.07;;;15.60;99.90;;;;;;2114139;28;20141;-67
2021/07/21 01:01:57;;;;;;;8.52;5.38;;;15.60;99.90;;;;;;2105607;28;20032;-67
2021/07/21 01:02:58;;;;;;;6.25;5.65;;;15.60;99.90;;;;;;2105021;28;20024;-67
2021/07/21 01:03:59;;;;;;;7.35;5.50;;;15.60;99.90;;;;;;2105763;28;20049;-67
2021/07/21 01:05:00;;;;;;;6.68;5.82;;;15.60;99.90;;;;;;2105506;28;20020;-67
2021/07/21 01:06:03;;;;;;;6.72;5.28;;;15.60;99.90;;;;;;2105688;28;20447;-67
2021/07/21 01:07:06;;;;;;;8.93;5.68;;;15.60;99.90;;;;;;2104548;28;20028;-67
2021/07/21 01:08:09;;;;;;;7.45;6.57;;;15.60;99.90;;;;;;2105187;28;20024;-67
2021/07/21 01:09:10;;;;;;;6.20;5.60;;;15.60;99.90;;;;;;2106738;28;20027;-67
2021/07/21 01:10:11;;;;;;;5.80;5.13;;;15.60;99.90;;;;;;2114374;28;20043;-67
2021/07/21 01:11:24;;;;;;;6.10;5.50;;;15.50;99.90;;;;;;2108641;28;20041;-67
2021/07/21 01:12:35;;;;;;;6.82;5.75;;;15.50;99.90;;;;;;2105518;28;20024;-67
2021/07/21 01:13:45;;;;;;;7.18;5.75;;;15.50;99.90;;;;;;2097522;28;20020;-67
2021/07/21 01:14:55;;;;;;;8.00;6.60;;;15.50;99.90;;;;;;2104518;28;20383;-67
2021/07/21 01:16:12;;;;;;;6.70;5.75;;;15.50;99.90;;;;;;2105868;28;20024;-67
2021/07/21 01:17:18;;;;;;;5.90;5.30;;;15.50;99.90;;;;;;2105659;28;20477;-67
2021/07/21 01:18:27;;;;;;;6.40;5.65;;;15.40;99.90;;;;;;2104563;28;20028;-67
2021/07/21 01:19:58;;;;;;;6.78;5.68;;;15.50;99.90;;;;;;2105307;28;20028;-67
2021/07/21 01:21:35;;;;;;;6.18;5.57;;;15.40;99.90;;;;;;2101903;28;20026;-67
2021/07/21 01:22:40;;;;;;;6.60;5.68;;;15.40;99.90;;;;;;2105081;28;20086;-67
2021/07/21 01:24:13;;;;;;;6.90;5.78;;;15.30;99.90;;;;;;2105002;28;20032;-67
2021/07/21 01:25:22;;;;;;;7.40;5.88;;;15.40;99.90;;;;;;2105563;28;20012;-67
2021/07/21 01:26:25;;;;;;;7.00;5.00;;;15.30;99.90;;;;;;2105593;28;20047;-67
2021/07/21 01:27:41;;;;;;;7.32;5.88;;;15.30;99.90;;;;;;2104793;28;20020;-67
2021/07/21 01:28:46;;;;;;;7.07;6.32;;;15.30;99.90;;;;;;2104735;28;20051;-67
2021/07/21 01:29:51;;;;;;;7.20;6.40;;;15.30;99.90;;;;;;2105449;28;20569;-67
2021/07/21 01:30:53;;;;;;;9.38;5.82;;;15.30;99.90;;;;;;2105615;28;20020;-67
2021/07/21 01:31:57;;;;;;;7.25;6.10;;;15.30;99.90;;;;;;2105118;28;20107;-67
2021/07/21 01:33:10;;;;;;;6.15;5.55;;;15.30;99.90;;;;;;2103306;28;20051;-67
2021/07/21 01:34:12;;;;;;;6.55;5.95;;;15.30;99.90;;;;;;2104694;28;20048;-67
2021/07/21 01:35:18;;;;;;;7.07;6.22;;;15.30;99.90;;;;;;2108850;28;20375;-67
2021/07/21 01:36:25;;;;;;;6.13;5.47;;;15.30;99.90;;;;;;2108518;28;20051;-67
2021/07/21 01:37:27;;;;;;;8.63;6.50;;;15.30;99.90;;;;;;2108349;28;20028;-67
2021/07/21 01:38:32;;;;;;;6.82;5.63;;;15.30;99.90;;;;;;2112385;28;20044;-67
2021/07/21 01:39:39;;;;;;;6.63;5.88;;;15.30;99.90;;;;;;2105796;28;20099;-67
2021/07/21 01:40:46;;;;;;;6.65;5.95;;;15.20;99.90;;;;;;2105015;28;20024;-67
2021/07/21 01:41:55;;;;;;;6.90;5.65;;;15.30;99.90;;;;;;2106467;28;20028;-67
2021/07/21 01:42:58;;;;;;;7.75;6.28;;;15.20;99.90;;;;;;2098205;28;20028;-67
2021/07/21 01:44:04;;;;;;;7.97;6.55;;;15.20;99.90;;;;;;2105059;28;20017;-67
2021/07/21 01:45:06;;;;;;;6.30;5.70;;;15.20;99.90;;;;;;2107302;28;20366;-67
2021/07/21 01:46:07;;;;;;;7.75;6.30;;;15.20;99.90;;;;;;2106870;28;20057;-67
2021/07/21 01:47:09;;;;;;;6.50;5.75;;;15.20;99.90;;;;;;2107128;28;20020;-67
2021/07/21 01:48:10;;;;;;;6.88;5.95;;;15.20;99.90;;;;;;2106391;28;20040;-67
2021/07/21 01:49:11;;;;;;;9.13;6.28;;;15.20;99.90;;;;;;2106844;28;20046;-67
2021/07/21 01:50:13;;;;;;;8.82;5.47;;;15.20;99.90;;;;;;2106798;28;20028;-67
2021/07/21 01:51:14;;;;;;;8.55;6.45;;;15.20;99.90;;;;;;2106873;28;20073;-67
2021/07/21 01:52:20;;;;;;;6.20;5.60;;;15.20;99.90;;;;;;2106534;28;20039;-67
2021/07/21 01:53:21;;;;;;;7.03;5.55;;;15.20;99.90;;;;;;2106464;28;20028;-67
2021/07/21 01:54:23;;;;;;;7.28;5.57;;;15.20;99.90;;;;;;2106624;28;20016;-67
2021/07/21 01:55:24;;;;;;;6.20;5.60;;;15.20;99.90;;;;;;2106926;28;20043;-67
2021/07/21 01:56:27;;;;;;;7.68;6.22;;;15.20;99.90;;;;;;2103592;28;20187;-67
2021/07/21 01:57:31;;;;;;;8.75;6.80;;;15.20;99.90;;;;;;2112792;28;20111;-67
2021/07/21 01:58:33;;;;;;;6.40;5.80;;;15.20;99.90;;;;;;2105164;28;20030;-67
2021/07/21 01:59:34;;;;;;;9.80;6.15;;;15.20;99.90;;;;;;2107033;28;20035;-67
2021/07/21 02:00:37;;;;;;;9.40;6.60;;;15.20;99.90;;;;;;2106793;28;20020;-67
2021/07/21 02:01:39;;;;;;;7.20;6.50;;;15.20;99.90;;;;;;2106418;28;20107;-67
2021/07/21 02:02:44;;;;;;;10.75;6.93;;;15.20;99.90;;;;;;2106162;28;20471;-67
2021/07/21 02:03:47;;;;;;;8.27;6.55;;;15.10;99.90;;;;;;2106812;28;20035;-68
2021/07/21 02:04:50;;;;;;;9.23;7.00;;;15.10;99.90;;;;;;2106741;28;20013;-67
2021/07/21 02:05:58;;;;;;;6.97;6.22;;;15.10;99.90;;;;;;2106860;28;20016;-67
2021/07/21 02:06:59;;;;;;;7.35;6.22;;;15.10;99.90;;;;;;2106319;28;20027;-67
2021/07/21 02:08:01;;;;;;;7.72;6.15;;;15.10;99.90;;;;;;2106560;28;20024;-67
2021/07/21 02:09:05;;;;;;;7.70;6.65;;;15.10;99.90;;;;;;2106923;28;20024;-67
2021/07/21 02:10:06;;;;;;;8.63;6.15;;;15.10;99.90;;;;;;2115298;28;20016;-67
2021/07/21 02:11:07;;;;;;;8.27;6.25;;;15.10;99.90;;;;;;2115041;28;20100;-67
2021/07/21 02:12:08;;;;;;;7.38;6.60;;;15.10;99.90;;;;;;2107998;28;20023;-67
2021/07/21 02:13:12;;;;;;;6.78;5.88;;;15.10;99.90;;;;;;2106227;28;20035;-67
2021/07/21 02:14:13;;;;;;;7.63;6.80;;;15.10;99.90;;;;;;2106757;28;20031;-67
2021/07/21 02:15:16;;;;;;;7.45;6.68;;;15.10;99.90;;;;;;2106445;28;20522;-67
2021/07/21 02:16:18;;;;;;;7.20;6.47;;;15.10;99.90;;;;;;2106726;28;20067;-67
2021/07/21 02:17:20;;;;;;;6.93;5.93;;;15.10;99.90;;;;;;2108033;28;20453;-67
2021/07/21 02:18:21;;;;;;;8.68;6.97;;;15.10;99.90;;;;;;2107648;28;20094;-67
2021/07/21 02:19:22;;;;;;;6.43;5.82;;;15.10;99.90;;;;;;2106517;28;20065;-67
2021/07/21 02:20:26;;;;;;;8.45;6.80;;;15.10;99.90;;;;;;2106667;28;20062;-67
2021/07/21 02:21:27;;;;;;;8.00;7.10;;;15.10;99.90;;;;;;2105816;28;20024;-67
2021/07/21 02:22:28;;;;;;;10.10;6.10;;;15.00;99.90;;;;;;2106056;28;20080;-67
2021/07/21 02:23:29;;;;;;;6.53;5.63;;;15.10;99.90;;;;;;2105934;28;20035;-67
2021/07/21 02:24:31;;;;;;;8.90;6.07;;;15.00;99.90;;;;;;2106668;28;20104;-67
2021/07/21 02:25:32;;;;;;;9.02;6.60;;;15.00;99.90;;;;;;2107937;28;20020;-67
2021/07/21 02:26:39;;;;;;;7.70;6.80;;;15.00;99.90;;;;;;2106907;28;20663;-67
2021/07/21 02:27:41;;;;;;;10.52;6.38;;;15.00;99.90;;;;;;2113429;28;20652;-67
2021/07/21 02:28:41;;;;;;;9.02;6.85;;;15.00;99.90;;;;;;2115229;28;20028;-67
2021/07/21 02:29:42;;;;;;;11.15;6.70;;;15.00;99.90;;;;;;2114879;28;20051;-67
2021/07/21 02:30:50;;;;;;;9.10;6.43;;;15.00;99.90;;;;;;2112114;28;20032;-67
2021/07/21 02:32:14;;;;;;;8.18;6.57;;;15.00;99.90;;;;;;2107489;28;20024;-67
2021/07/21 02:33:23;;;;;;;7.13;6.32;;;14.90;99.90;;;;;;2107835;28;20414;-67
2021/07/21 02:34:24;;;;;;;10.60;6.32;;;15.00;99.90;;;;;;2098272;28;20086;-67
2021/07/21 02:35:25;;;;;;;7.93;6.32;;;14.90;99.90;;;;;;2102375;28;20028;-67
2021/07/21 02:36:25;;;;;;;9.27;6.13;;;14.90;99.90;;;;;;2106781;28;20481;-67
2021/07/21 02:37:26;;;;;;;7.40;6.25;;;14.90;99.90;;;;;;2106407;28;20051;-67
2021/07/21 02:38:27;;;;;;;6.50;5.85;;;14.90;99.90;;;;;;2106276;28;20106;-67
2021/07/21 02:39:27;;;;;;;7.13;6.13;;;14.90;99.90;;;;;;2106346;28;20024;-67
2021/07/21 02:40:28;;;;;;;8.80;6.70;;;14.90;99.90;;;;;;2111810;28;20076;-67
2021/07/21 02:41:29;;;;;;;6.63;5.95;;;14.90;99.90;;;;;;2113823;28;20093;-67
2021/07/21 02:42:29;;;;;;;7.30;5.45;;;14.90;99.90;;;;;;2106146;28;20066;-67
2021/07/21 02:43:30;;;;;;;9.20;6.35;;;14.90;99.90;;;;;;2105714;28;20016;-67
2021/07/21 02:44:31;;;;;;;7.80;6.88;;;14.90;99.90;;;;;;2105656;28;20026;-67
2021/07/21 02:45:32;;;;;;;7.18;6.43;;;14.90;99.90;;;;;;2106508;28;20020;-67
2021/07/21 02:46:32;;;;;;;10.93;6.90;;;14.90;99.90;;;;;;2106074;28;20062;-67
2021/07/21 02:47:33;;;;;;;7.13;6.35;;;14.90;99.90;;;;;;2106349;28;20023;-67
2021/07/21 02:48:34;;;;;;;9.95;6.47;;;14.90;99.90;;;;;;2111725;28;20044;-67
2021/07/21 02:49:34;;;;;;;7.55;6.78;;;14.80;99.90;;;;;;2114657;28;20028;-67
2021/07/21 02:50:37;;;;;;;7.07;6.10;;;14.80;99.90;;;;;;2114974;28;20022;-67
2021/07/21 02:51:46;;;;;;;8.70;7.00;;;14.90;99.90;;;;;;2112802;28;20472;-67
2021/07/21 02:52:57;;;;;;;6.45;5.70;;;14.80;99.90;;;;;;2105757;28;20036;-67
2021/07/21 02:54:08;;;;;;;11.90;6.57;;;14.80;99.90;;;;;;2098206;28;20051;-67
2021/07/21 02:55:23;;;;;;;6.93;5.97;;;14.80;99.90;;;;;;2104344;28;20044;-67
2021/07/21 02:56:26;;;;;;;7.95;6.68;;;14.80;99.90;;;;;;2106242;28;20077;-67
2021/07/21 02:57:38;;;;;;;6.85;6.00;;;14.80;99.90;;;;;;2106428;28;20028;-67
2021/07/21 02:58:50;;;;;;;7.78;6.97;;;14.80;99.90;;;;;;2098116;28;20384;-67
2021/07/21 02:59:53;;;;;;;7.20;6.50;;;14.80;99.90;;;;;;2103099;28;20020;-67
2021/07/21 03:00:57;;;;;;;7.70;5.72;;;14.70;99.90;;;;;;2105986;28;20020;-67
2021/07/21 03:02:01;;;;;;;10.43;6.60;;;14.70;99.90;;;;;;2105935;28;20110;-67
2021/07/21 03:03:08;;;;;;;7.80;6.00;;;14.70;99.90;;;;;;2105601;28;20024;-67
2021/07/21 03:04:10;;;;;;;7.63;6.18;;;14.80;99.90;;;;;;2106721;28;20059;-67
2021/07/21 03:05:14;;;;;;;7.25;6.38;;;14.70;99.90;;;;;;2114641;28;20024;-67
2021/07/21 03:06:19;;;;;;;7.72;6.38;;;14.70;99.90;;;;;;2110946;28;20055;-67
2021/07/21 03:07:22;;;;;;;7.97;6.20;;;14.70;99.90;;;;;;2106232;28;20103;-67
2021/07/21 03:08:25;;;;;;;9.07;7.15;;;14.70;99.90;;;;;;2106308;28;20028;-67
2021/07/21 03:09:26;;;;;;;8.75;6.65;;;14.70;99.90;;;;;;2106098;28;20376;-67
2021/07/21 03:10:28;;;;;;;8.80;6.28;;;14.70;99.90;;;;;;2106431;28;20013;-67
2021/07/21 03:11:29;;;;;;;7.32;6.50;;;14.70;99.90;;;;;;2105411;28;20039;-67
2021/07/21 03:12:31;;;;;;;6.72;6.00;;;14.70;99.90;;;;;;2106142;28;20028;-67
2021/07/21 03:13:47;;;;;;;9.63;6.72;;;14.70;99.90;;;;;;2096971;28;20033;-67
2021/07/21 03:14:51;;;;;;;7.65;6.82;;;14.70;99.90;;;;;;2105456;28;20625;-67
2021/07/21 03:15:51;;;;;;;7.90;6.03;;;14.70;99.90;;;;;;2109009;28;20032;-67
2021/07/21 03:16:54;;;;;;;7.32;6.25;;;14.70;99.90;;;;;;2114922;28;20073;-67
2021/07/21 03:17:56;;;;;;;6.47;5.72;;;14.70;99.90;;;;;;2110451;28;20424;-67
2021/07/21 03:19:02;;;;;;;6.50;5.80;;;14.70;99.90;;;;;;2106443;28;20051;-67
2021/07/21 03:20:05;;;;;;;8.35;6.47;;;14.70;99.90;;;;;;2106119;28;20098;-67
2021/07/21 03:21:08;;;;;;;8.43;5.97;;;14.70;99.90;;;;;;2106424;28;20058;-67
2021/07/21 03:22:11;;;;;;;6.75;6.05;;;14.70;99.90;;;;;;2105890;28;20012;-67
2021/07/21 03:23:13;;;;;;;6.97;6.10;;;14.60;99.90;;;;;;2104899;28;20432;-67
2021/07/21 03:24:13;;;;;;;7.00;6.30;;;14.60;99.90;;;;;;2110185;28;20065;-67
2021/07/21 03:25:15;;;;;;;7.43;6.18;;;14.70;99.90;;;;;;2113790;28;20031;-67
2021/07/21 03:26:17;;;;;;;7.70;6.60;;;14.60;99.90;;;;;;2106127;28;20371;-67
2021/07/21 03:27:19;;;;;;;6.32;5.72;;;14.60;99.90;;;;;;2106178;28;20370;-67
2021/07/21 03:28:21;;;;;;;8.43;6.57;;;14.60;99.90;;;;;;2105980;28;20459;-67
2021/07/21 03:29:23;;;;;;;9.52;6.60;;;14.60;99.90;;;;;;2106338;28;20485;-67
2021/07/21 03:30:24;;;;;;;8.35;6.35;;;14.60;99.90;;;;;;2105840;28;20051;-67
2021/07/21 03:31:26;;;;;;;8.35;6.57;;;14.60;99.90;;;;;;2106025;28;20022;-67
2021/07/21 03:32:27;;;;;;;7.10;6.40;;;14.60;99.90;;;;;;2105663;28;20032;-67
2021/07/21 03:33:29;;;;;;;7.32;6.53;;;14.60;99.90;;;;;;2105935;28;20107;-67
2021/07/21 03:34:31;;;;;;;9.10;7.20;;;14.60;99.90;;;;;;2106109;28;20070;-67
2021/07/21 03:35:33;;;;;;;9.35;7.18;;;14.60;99.90;;;;;;2106280;28;20020;-67
2021/07/21 03:36:36;;;;;;;10.20;7.78;;;14.60;99.90;;;;;;2106058;28;20084;-67
2021/07/21 03:37:40;;;;;;;11.05;6.57;;;14.60;99.90;;;;;;2106141;28;20111;-67
2021/07/21 03:38:42;;;;;;;7.50;6.45;;;14.60;99.90;;;;;;2105429;28;20103;-67
2021/07/21 03:39:46;;;;;;;7.65;6.78;;;14.60;99.90;;;;;;2113594;28;20067;-67
2021/07/21 03:40:50;;;;;;;7.68;6.30;;;14.60;99.90;;;;;;2113390;28;20035;-67
2021/07/21 03:41:52;;;;;;;6.10;5.50;;;14.60;99.90;;;;;;2111538;28;20696;-67
2021/07/21 03:42:55;;;;;;;7.47;6.22;;;14.60;99.90;;;;;;2105328;28;20063;-67
2021/07/21 03:43:55;;;;;;;6.68;5.97;;;14.60;99.90;;;;;;2105187;28;20016;-67
2021/07/21 03:45:02;;;;;;;7.80;6.38;;;14.60;99.90;;;;;;2106470;28;20028;-67
2021/07/21 03:46:02;;;;;;;7.90;5.95;;;14.60;99.90;;;;;;2114550;28;20094;-67
2021/07/21 03:47:03;;;;;;;6.65;5.95;;;14.60;99.90;;;;;;2114434;28;20026;-67
2021/07/21 03:48:05;;;;;;;7.82;5.75;;;14.60;99.90;;;;;;2108099;28;20051;-67
2021/07/21 03:49:07;;;;;;;7.32;6.05;;;14.50;99.90;;;;;;2107589;28;20032;-67
2021/07/21 03:50:09;;;;;;;7.70;6.47;;;14.50;99.90;;;;;;2110225;28;20015;-67
2021/07/21 03:51:12;;;;;;;7.00;6.30;;;14.50;99.90;;;;;;2114264;28;20676;-67
2021/07/21 03:52:14;;;;;;;9.98;6.80;;;14.60;99.90;;;;;;2108605;28;20020;-67
2021/07/21 03:53:16;;;;;;;7.60;6.05;;;14.60;99.90;;;;;;2108003;28;20386;-67
2021/07/21 03:54:18;;;;;;;8.68;6.35;;;14.60;99.90;;;;;;2106316;28;20503;-67
2021/07/21 03:55:21;;;;;;;13.88;6.68;;;14.60;99.90;;;;;;2108807;28;20038;-67
2021/07/21 03:56:22;;;;;;;8.73;5.85;;;14.50;99.90;;;;;;2105615;28;20051;-67
2021/07/21 03:57:25;;;;;;;7.28;6.43;;;14.50;99.90;;;;;;2106310;28;20031;-67
2021/07/21 03:58:25;;;;;;;7.72;5.90;;;14.50;99.90;;;;;;2110178;28;20039;-67
2021/07/21 03:59:26;;;;;;;7.28;6.45;;;14.50;99.90;;;;;;2111866;28;20036;-67
2021/07/21 04:00:27;;;;;;;8.65;6.03;;;14.50;99.90;;;;;;2106153;28;20028;-67
2021/07/21 04:01:28;;;;;;;6.68;5.70;;;14.50;99.90;;;;;;2106148;28;20072;-67
2021/07/21 04:02:30;;;;;;;9.45;6.13;;;14.50;99.90;;;;;;2105542;28;20111;-67
2021/07/21 04:03:33;;;;;;;7.60;5.68;;;14.60;99.90;;;;;;2105294;28;20107;-67
2021/07/21 04:04:35;;;;;;;7.82;6.00;;;14.50;99.90;;;;;;2105959;28;20100;-67
2021/07/21 04:05:36;;;;;;;7.22;5.82;;;14.50;99.90;;;;;;2104604;28;20024;-67
2021/07/21 04:06:38;;;;;;;7.32;6.57;;;14.50;99.90;;;;;;2104560;28;20058;-67
2021/07/21 04:07:39;;;;;;;7.75;6.30;;;14.50;99.90;;;;;;2107433;28;20466;-67
2021/07/21 04:08:42;;;;;;;6.97;6.22;;;14.50;99.90;;;;;;2109998;28;20377;-67
2021/07/21 04:09:50;;;;;;;9.30;6.20;;;14.50;99.90;;;;;;2108044;28;20106;-67
2021/07/21 04:10:53;;;;;;;6.53;5.93;;;14.50;99.90;;;;;;2105860;28;20032;-67
2021/07/21 04:11:56;;;;;;;7.18;6.03;;;14.50;99.90;;;;;;2105392;28;20035;-67
2021/07/21 04:13:02;;;;;;;6.78;5.65;;;14.50;99.90;;;;;;2105602;28;20012;-67
2021/07/21 04:14:05;;;;;;;6.47;5.88;;;14.50;99.90;;;;;;2105021;28;20027;-67
2021/07/21 04:15:06;;;;;;;8.65;5.78;;;14.50;99.90;;;;;;2106521;28;20027;-67
2021/07/21 04:16:12;;;;;;;11.30;7.43;;;14.50;99.90;;;;;;2104025;28;20030;-67
2021/07/21 04:17:15;;;;;;;8.48;6.28;;;14.50;99.90;;;;;;2101310;28;20328;-67
2021/07/21 04:18:19;;;;;;;6.90;6.10;;;14.50;99.90;;;;;;2105470;28;20035;-67
2021/07/21 04:19:22;;;;;;;6.88;5.90;;;14.50;99.90;;;;;;2104846;28;20020;-67
2021/07/21 04:20:24;;;;;;;6.10;5.50;;;14.60;99.90;;;;;;2104511;28;20075;-67
2021/07/21 04:21:26;;;;;;;7.18;6.10;;;14.60;99.90;;;;;;2106807;28;20020;-67
2021/07/21 04:22:28;;;;;;;7.78;6.43;;;14.50;99.90;;;;;;2103340;28;20028;-67
2021/07/21 04:23:30;;;;;;;7.70;6.18;;;14.60;99.90;;;;;;2100822;28;20136;-67
2021/07/21 04:24:31;;;;;;;6.10;5.50;;;14.60;99.90;;;;;;2103755;28;20031;-67
2021/07/21 04:25:33;;;;;;;10.95;6.50;;;14.60;99.90;;;;;;2105932;28;20054;-67
2021/07/21 04:26:33;;;;;;;7.25;6.10;;;14.60;99.90;;;;;;2106612;28;20027;-67
2021/07/21 04:27:35;;;;;;;8.02;6.25;;;14.60;99.90;;;;;;2105872;28;20048;-67
2021/07/21 04:28:38;;;;;;;6.97;5.60;;;14.60;99.90;;;;;;2104622;28;20054;-67
2021/07/21 04:29:41;;;;;;;8.50;6.30;;;14.60;99.90;;;;;;2103175;28;20028;-67
2021/07/21 04:30:42;;;;;;;9.00;6.45;;;14.60;99.90;;;;;;2102198;28;20059;-67
2021/07/21 04:31:45;;;;;;;7.05;6.35;;;14.60;99.90;;;;;;2105048;28;20115;-67
2021/07/21 04:32:46;;;;;;;11.23;6.93;;;14.60;99.90;;;;;;2104579;28;20474;-67
2021/07/21 04:33:46;;;;;;;6.60;5.93;;;14.60;99.90;;;;;;2105986;28;20593;-67
2021/07/21 04:34:48;;;;;;;6.72;6.03;;;14.70;99.90;;;;;;2106705;28;20480;-67
2021/07/21 04:35:49;;;;;;;9.13;6.75;;;14.70;99.90;;;;;;2107181;28;20349;-67
2021/07/21 04:36:51;;;;;;;7.47;6.03;;;14.70;99.90;;;;;;2106784;28;20060;-67
2021/07/21 04:37:52;;;;;;;6.68;5.75;;;14.70;99.90;;;;;;2105478;28;20026;-67
2021/07/21 04:38:53;;;;;;;9.00;6.05;;;14.70;99.90;;;;;;2106838;28;20470;-67
2021/07/21 04:39:54;;;;;;;7.90;6.03;;;14.70;99.90;;;;;;2107144;28;20023;-67
2021/07/21 04:40:55;;;;;;;6.93;6.00;;;14.70;99.90;;;;;;2106782;28;20412;-67
2021/07/21 04:41:57;;;;;;;6.90;6.10;;;14.70;99.90;;;;;;2107967;28;20062;-67
2021/07/21 04:42:57;;;;;;;7.97;6.55;;;14.80;99.90;;;;;;2110895;28;20028;-67
2021/07/21 04:43:59;;;;;;;7.50;6.25;;;14.80;99.90;;;;;;2102549;28;20047;-67
2021/07/21 04:45:00;;;;;;;8.13;6.60;;;14.80;99.90;;;;;;2103911;28;20012;-67
2021/07/21 04:46:01;;;;;;;8.07;6.63;;;14.80;99.90;;;;;;2105145;28;20024;-67
2021/07/21 04:47:02;;;;;;;6.88;5.90;;;14.80;99.90;;;;;;2105063;28;20030;-67
2021/07/21 04:48:03;;;;;;;7.30;6.30;;;14.80;99.90;;;;;;2100933;28;20471;-67
2021/07/21 04:49:05;;;;;;;9.35;6.53;;;14.90;99.90;;;;;;2105921;28;20020;-67
2021/07/21 04:50:13;;;;;;;9.98;7.15;;;14.90;99.90;;;;;;2106865;28;20020;-67
2021/07/21 04:51:17;;;;;;;8.80;6.82;;;14.90;99.90;;;;;;2104379;28;20035;-67
2021/07/21 04:52:20;;;;;;;7.53;6.45;;;14.90;99.90;;;;;;2106681;28;20370;-67
2021/07/21 04:53:20;;;;;;;9.35;6.78;;;15.00;99.90;;;;;;2104791;28;20035;-67
2021/07/21 04:54:21;;;;;;;11.48;6.63;;;15.00;99.90;;;;;;2106684;28;20032;-67
2021/07/21 04:55:22;;;;;;;7.25;6.55;;;15.10;99.90;;;;;;2102632;28;20040;-67
2021/07/21 04:56:22;;;;;;;11.25;7.32;;;15.10;99.90;;;;;;2107120;28;20686;-67
2021/07/21 04:57:24;;;;;;;9.07;7.38;;;15.20;99.90;;;;;;2106808;28;20024;-67
2021/07/21 04:58:24;;;;;;;9.07;6.70;;;15.30;99.90;;;;;;2106891;28;20051;-67
2021/07/21 04:59:25;;;;;;;14.40;8.95;;;15.30;99.90;;;;;;2104299;28;20024;-67
2021/07/21 05:00:26;;;;;;;13.57;8.27;;;15.40;99.90;;;;;;2104884;28;20079;-67
2021/07/21 05:01:27;;;;;;;11.65;8.93;;;15.50;99.90;;;;;;2102189;28;20103;-67
2021/07/21 05:02:27;;;;;;;15.48;9.23;;;15.50;99.90;;;;;;2105096;28;20052;-67
2021/07/21 05:03:28;;;;;;;17.70;9.80;;;15.60;99.90;;;;;;2102717;28;20082;-67
2021/07/21 05:04:28;;;;;;;10.95;8.73;;;15.60;99.90;;;;;;2105389;28;20048;-67
2021/07/21 05:05:29;;;;;;;10.85;8.63;;;15.70;99.90;;;;;;2105433;28;20086;-67
2021/07/21 05:06:32;;;;;;;12.70;9.40;;;15.80;99.90;;;;;;2108589;28;20027;-67
2021/07/21 05:07:32;;;;;;;11.32;8.18;;;15.90;99.90;;;;;;2112026;28;20024;-67
2021/07/21 05:08:33;;;;;;;11.23;8.57;;;15.90;99.90;;;;;;2110264;28;20058;-67
2021/07/21 05:09:33;;;;;;;17.92;9.10;;;16.00;99.90;;;;;;2113780;28;20026;-67
2021/07/21 05:10:34;;;;;;;13.93;8.75;;;16.00;99.90;;;;;;2115921;28;20062;-67
2021/07/21 05:11:34;;;;;;;13.95;9.27;;;16.10;99.90;;;;;;2107284;28;20467;-67
2021/07/21 05:12:35;;;;;;;14.00;9.68;;;16.20;99.90;;;;;;2106511;28;20031;-67
2021/07/21 05:13:40;;;;;;;11.48;9.10;;;16.30;99.90;;;;;;2107135;28;20020;-67
2021/07/21 05:14:40;;;;;;;14.98;8.45;;;16.30;99.90;;;;;;2107160;28;20016;-67
2021/07/21 05:15:44;;;;;;;13.48;8.88;;;16.40;99.90;;;;;;2107140;28;20024;-67
2021/07/21 05:16:45;;;;;;;10.00;8.05;;;16.40;99.90;;;;;;2106681;28;20016;-67
2021/07/21 05:17:46;;;;;;;12.55;8.73;;;16.50;99.90;;;;;;2107229;28;20020;-68
2021/07/21 05:18:46;;;;;;;9.65;8.65;;;16.60;99.90;;;;;;2107128;28;20449;-67
2021/07/21 05:19:47;;;;;;;11.88;8.32;;;16.70;99.90;;;;;;2107352;28;20475;-68
2021/07/21 05:20:47;;;;;;;13.00;8.45;;;16.80;99.90;;;;;;2106827;28;20024;-67
2021/07/21 05:21:48;;;;;;;15.98;8.82;;;16.80;99.90;;;;;;2106967;28;20125;-67
2021/07/21 05:22:49;;;;;;;13.00;8.30;;;16.90;99.90;;;;;;2106422;28;20471;-67
2021/07/21 05:23:50;;;;;;;10.23;7.95;;;16.90;99.90;;;;;;2106565;28;20016;-68
2021/07/21 05:24:51;;;;;;;12.43;8.07;;;17.00;99.90;;;;;;2109443;27;20024;-67
2021/07/21 05:25:51;;;;;;;13.52;7.90;;;17.10;99.90;;;;;;2107662;28;20065;-68
2021/07/21 05:26:52;;;;;;;11.25;7.40;;;17.20;99.90;;;;;;2106979;28;20494;-68
2021/07/21 05:27:53;;;;;;;9.82;8.10;;;17.20;99.90;;;;;;2107023;28;20088;-67
2021/07/21 05:28:53;;;;;;;10.77;8.32;;;17.30;99.90;;;;;;2106126;28;20091;-68
2021/07/21 05:29:54;;;;;;;10.15;7.82;;;17.20;99.90;;;;;;2108680;28;20020;-68
2021/07/21 05:30:54;;;;;;;10.18;8.13;;;17.30;99.90;;;;;;2108536;28;20127;-68
2021/07/21 05:31:56;;;;;;;11.95;8.20;;;17.40;99.90;;;;;;2106549;28;20044;-68
2021/07/21 05:32:57;;;;;;;11.48;7.60;;;17.40;99.90;;;;;;2106096;28;20513;-68